sensor_id;sensor_type;location;lat;lon;timestamp;P1;durP1;ratioP1;P2;durP2;ratioP2
19951;SDS011;10137;49.406;19.484;2023-07-29T00:00:56;7.87;;;5.40;;
19951;SDS011;10137;49.406;19.484;2023-07-29T00:03:26;7.90;;;5.43;;
19951;SDS011;10137;49.406;19.484;2023-07-29T00:05:56;9.80;;;7.20;;
19951;SDS011;10137;49.406;19.484;2023-07-29T00:08:24;7.67;;;6.10;;
19951;SDS011;10137;49.406;19.484;2023-07-29T00:10:52;10.73;;;5.50;;
19951;SDS011;10137;49.406;19.484;2023-07-29T00:13:20;8.17;;;5.83;;
19951;SDS011;10137;49.406;19.484;2023-07-29T00:15:53;6.03;;;4.67;;
19951;SDS011;10137;49.406;19.484;2023-07-29T00:18:22;7.57;;;5.23;;
19951;SDS011;10137;49.406;19.484;2023-07-29T00:20:50;8.97;;;5.00;;
19951;SDS011;10137;49.406;19.484;2023-07-29T00:23:18;8.80;;;5.30;;
19951;SDS011;10137;49.406;19.484;2023-07-29T00:25:47;7.27;;;5.00;;
19951;SDS011;10137;49.406;19.484;2023-07-29T00:28:16;9.30;;;4.83;;
19951;SDS011;10137;49.406;19.484;2023-07-29T00:30:44;8.07;;;4.57;;
19951;SDS011;10137;49.406;19.484;2023-07-29T00:33:14;7.37;;;4.30;;
19951;SDS011;10137;49.406;19.484;2023-07-29T00:35:42;9.67;;;4.57;;
19951;SDS011;10137;49.406;19.484;2023-07-29T00:38:13;6.53;;;4.27;;
19951;SDS011;10137;49.406;19.484;2023-07-29T00:40:41;6.20;;;3.70;;
19951;SDS011;10137;49.406;19.484;2023-07-29T00:43:09;6.83;;;4.50;;
19951;SDS011;10137;49.406;19.484;2023-07-29T00:45:37;6.53;;;4.07;;
19951;SDS011;10137;49.406;19.484;2023-07-29T00:48:06;5.47;;;4.07;;
19951;SDS011;10137;49.406;19.484;2023-07-29T00:50:36;4.77;;;4.27;;
19951;SDS011;10137;49.406;19.484;2023-07-29T00:53:05;7.03;;;4.17;;
19951;SDS011;10137;49.406;19.484;2023-07-29T00:55:33;6.33;;;3.97;;
19951;SDS011;10137;49.406;19.484;2023-07-29T00:58:01;4.93;;;3.73;;
19951;SDS011;10137;49.406;19.484;2023-07-29T01:00:29;9.73;;;4.00;;
19951;SDS011;10137;49.406;19.484;2023-07-29T01:02:56;8.23;;;4.30;;
19951;SDS011;10137;49.406;19.484;2023-07-29T01:05:24;3.70;;;3.30;;
19951;SDS011;10137;49.406;19.484;2023-07-29T01:07:58;4.77;;;3.23;;
19951;SDS011;10137;49.406;19.484;2023-07-29T01:10:34;9.53;;;3.50;;
19951;SDS011;10137;49.406;19.484;2023-07-29T01:13:10;3.90;;;3.10;;
19951;SDS011;10137;49.406;19.484;2023-07-29T01:15:43;7.37;;;3.03;;
19951;SDS011;10137;49.406;19.484;2023-07-29T01:18:17;4.63;;;3.40;;
19951;SDS011;10137;49.406;19.484;2023-07-29T01:20:48;4.50;;;3.00;;
19951;SDS011;10137;49.406;19.484;2023-07-29T01:23:23;4.90;;;3.10;;
19951;SDS011;10137;49.406;19.484;2023-07-29T01:25:51;5.30;;;3.10;;
19951;SDS011;10137;49.406;19.484;2023-07-29T01:28:18;4.13;;;3.23;;
19951;SDS011;10137;49.406;19.484;2023-07-29T01:30:45;4.53;;;3.47;;
19951;SDS011;10137;49.406;19.484;2023-07-29T01:33:16;7.03;;;3.80;;
19951;SDS011;10137;49.406;19.484;2023-07-29T01:35:46;4.50;;;3.43;;
19951;SDS011;10137;49.406;19.484;2023-07-29T01:38:18;6.27;;;3.13;;
19951;SDS011;10137;49.406;19.484;2023-07-29T01:40:48;5.70;;;3.77;;
19951;SDS011;10137;49.406;19.484;2023-07-29T01:43:16;3.90;;;3.17;;
19951;SDS011;10137;49.406;19.484;2023-07-29T01:45:48;4.43;;;3.37;;
19951;SDS011;10137;49.406;19.484;2023-07-29T01:48:16;6.40;;;3.60;;
19951;SDS011;10137;49.406;19.484;2023-07-29T01:50:43;4.50;;;3.47;;
19951;SDS011;10137;49.406;19.484;2023-07-29T01:53:10;4.13;;;3.40;;
19951;SDS011;10137;49.406;19.484;2023-07-29T01:55:38;6.93;;;3.10;;
19951;SDS011;10137;49.406;19.484;2023-07-29T01:58:06;4.10;;;3.20;;
19951;SDS011;10137;49.406;19.484;2023-07-29T02:00:33;6.30;;;3.20;;
19951;SDS011;10137;49.406;19.484;2023-07-29T02:03:00;6.07;;;2.90;;
19951;SDS011;10137;49.406;19.484;2023-07-29T02:05:27;5.97;;;3.07;;
19951;SDS011;10137;49.406;19.484;2023-07-29T02:07:54;5.50;;;3.00;;
19951;SDS011;10137;49.406;19.484;2023-07-29T02:10:21;6.13;;;3.20;;
19951;SDS011;10137;49.406;19.484;2023-07-29T02:12:48;4.10;;;3.00;;
19951;SDS011;10137;49.406;19.484;2023-07-29T02:15:17;4.47;;;2.60;;
19951;SDS011;10137;49.406;19.484;2023-07-29T02:17:44;4.37;;;2.57;;
19951;SDS011;10137;49.406;19.484;2023-07-29T02:20:11;4.50;;;2.57;;
19951;SDS011;10137;49.406;19.484;2023-07-29T02:22:38;4.33;;;2.60;;
19951;SDS011;10137;49.406;19.484;2023-07-29T02:25:05;4.07;;;2.50;;
19951;SDS011;10137;49.406;19.484;2023-07-29T02:27:32;5.57;;;2.77;;
19951;SDS011;10137;49.406;19.484;2023-07-29T02:29:59;3.77;;;2.67;;
19951;SDS011;10137;49.406;19.484;2023-07-29T02:32:27;7.20;;;2.90;;
19951;SDS011;10137;49.406;19.484;2023-07-29T02:34:54;4.03;;;2.50;;
19951;SDS011;10137;49.406;19.484;2023-07-29T02:37:21;2.97;;;2.47;;
19951;SDS011;10137;49.406;19.484;2023-07-29T02:39:48;4.13;;;2.70;;
19951;SDS011;10137;49.406;19.484;2023-07-29T02:42:15;6.87;;;2.60;;
19951;SDS011;10137;49.406;19.484;2023-07-29T02:44:42;4.07;;;2.80;;
19951;SDS011;10137;49.406;19.484;2023-07-29T02:47:09;4.77;;;2.70;;
19951;SDS011;10137;49.406;19.484;2023-07-29T02:49:37;2.73;;;2.30;;
19951;SDS011;10137;49.406;19.484;2023-07-29T02:52:04;3.60;;;2.60;;
19951;SDS011;10137;49.406;19.484;2023-07-29T02:54:31;3.60;;;2.60;;
19951;SDS011;10137;49.406;19.484;2023-07-29T02:56:58;3.67;;;2.47;;
19951;SDS011;10137;49.406;19.484;2023-07-29T02:59:26;5.60;;;2.80;;
19951;SDS011;10137;49.406;19.484;2023-07-29T03:01:53;3.37;;;2.70;;
19951;SDS011;10137;49.406;19.484;2023-07-29T03:04:19;5.80;;;3.00;;
19951;SDS011;10137;49.406;19.484;2023-07-29T03:06:48;4.10;;;3.20;;
19951;SDS011;10137;49.406;19.484;2023-07-29T03:09:15;3.03;;;2.60;;
19951;SDS011;10137;49.406;19.484;2023-07-29T03:11:42;5.83;;;2.67;;
19951;SDS011;10137;49.406;19.484;2023-07-29T03:14:09;2.63;;;2.30;;
19951;SDS011;10137;49.406;19.484;2023-07-29T03:16:36;5.67;;;3.00;;
19951;SDS011;10137;49.406;19.484;2023-07-29T03:19:03;4.53;;;2.60;;
19951;SDS011;10137;49.406;19.484;2023-07-29T03:21:31;3.13;;;2.60;;
19951;SDS011;10137;49.406;19.484;2023-07-29T03:23:59;4.23;;;3.13;;
19951;SDS011;10137;49.406;19.484;2023-07-29T03:26:26;3.60;;;2.87;;
19951;SDS011;10137;49.406;19.484;2023-07-29T03:28:53;3.20;;;2.53;;
19951;SDS011;10137;49.406;19.484;2023-07-29T03:31:20;3.57;;;2.80;;
19951;SDS011;10137;49.406;19.484;2023-07-29T03:33:47;5.03;;;2.70;;
19951;SDS011;10137;49.406;19.484;2023-07-29T03:36:14;2.70;;;2.30;;
19951;SDS011;10137;49.406;19.484;2023-07-29T03:38:41;3.30;;;2.63;;
19951;SDS011;10137;49.406;19.484;2023-07-29T03:41:11;3.37;;;2.53;;
19951;SDS011;10137;49.406;19.484;2023-07-29T03:43:38;4.80;;;2.50;;
19951;SDS011;10137;49.406;19.484;2023-07-29T03:46:05;4.67;;;2.30;;
19951;SDS011;10137;49.406;19.484;2023-07-29T03:48:32;6.63;;;3.07;;
19951;SDS011;10137;49.406;19.484;2023-07-29T03:50:59;6.73;;;2.63;;
19951;SDS011;10137;49.406;19.484;2023-07-29T03:53:25;6.73;;;2.93;;
19951;SDS011;10137;49.406;19.484;2023-07-29T03:55:52;5.30;;;3.00;;
19951;SDS011;10137;49.406;19.484;2023-07-29T03:58:21;3.60;;;2.70;;
19951;SDS011;10137;49.406;19.484;2023-07-29T04:00:48;3.37;;;2.90;;
19951;SDS011;10137;49.406;19.484;2023-07-29T04:03:14;5.70;;;2.77;;
19951;SDS011;10137;49.406;19.484;2023-07-29T04:05:41;4.80;;;3.00;;
19951;SDS011;10137;49.406;19.484;2023-07-29T04:08:08;3.50;;;2.63;;
19951;SDS011;10137;49.406;19.484;2023-07-29T04:10:36;4.57;;;2.60;;
19951;SDS011;10137;49.406;19.484;2023-07-29T04:13:03;4.10;;;3.00;;
19951;SDS011;10137;49.406;19.484;2023-07-29T04:15:31;3.60;;;2.60;;
19951;SDS011;10137;49.406;19.484;2023-07-29T04:17:58;4.87;;;2.63;;
19951;SDS011;10137;49.406;19.484;2023-07-29T04:20:25;5.63;;;2.93;;
19951;SDS011;10137;49.406;19.484;2023-07-29T04:22:52;4.60;;;2.80;;
19951;SDS011;10137;49.406;19.484;2023-07-29T04:25:19;3.83;;;2.73;;
19951;SDS011;10137;49.406;19.484;2023-07-29T04:27:46;3.40;;;2.73;;
19951;SDS011;10137;49.406;19.484;2023-07-29T04:30:12;5.00;;;2.63;;
19951;SDS011;10137;49.406;19.484;2023-07-29T04:32:41;5.07;;;3.00;;
19951;SDS011;10137;49.406;19.484;2023-07-29T04:35:10;5.00;;;3.10;;
19951;SDS011;10137;49.406;19.484;2023-07-29T04:37:37;3.63;;;2.50;;
19951;SDS011;10137;49.406;19.484;2023-07-29T04:40:04;5.37;;;2.60;;
19951;SDS011;10137;49.406;19.484;2023-07-29T04:42:32;4.23;;;3.17;;
19951;SDS011;10137;49.406;19.484;2023-07-29T04:44:59;6.50;;;5.20;;
19951;SDS011;10137;49.406;19.484;2023-07-29T04:47:26;8.63;;;5.00;;
19951;SDS011;10137;49.406;19.484;2023-07-29T04:49:54;7.37;;;4.10;;
19951;SDS011;10137;49.406;19.484;2023-07-29T04:52:21;8.90;;;4.40;;
19951;SDS011;10137;49.406;19.484;2023-07-29T04:54:48;4.47;;;3.63;;
19951;SDS011;10137;49.406;19.484;2023-07-29T04:57:15;11.07;;;6.93;;
19951;SDS011;10137;49.406;19.484;2023-07-29T04:59:42;12.73;;;8.90;;
19951;SDS011;10137;49.406;19.484;2023-07-29T05:02:09;9.73;;;6.00;;
19951;SDS011;10137;49.406;19.484;2023-07-29T05:04:36;7.13;;;4.07;;
19951;SDS011;10137;49.406;19.484;2023-07-29T05:07:05;5.83;;;3.90;;
19951;SDS011;10137;49.406;19.484;2023-07-29T05:09:32;7.13;;;3.27;;
19951;SDS011;10137;49.406;19.484;2023-07-29T05:11:59;13.63;;;3.57;;
19951;SDS011;10137;49.406;19.484;2023-07-29T05:14:26;4.63;;;3.20;;
19951;SDS011;10137;49.406;19.484;2023-07-29T05:16:52;3.97;;;3.10;;
19951;SDS011;10137;49.406;19.484;2023-07-29T05:19:19;4.83;;;3.70;;
19951;SDS011;10137;49.406;19.484;2023-07-29T05:21:46;4.80;;;3.23;;
19951;SDS011;10137;49.406;19.484;2023-07-29T05:24:15;7.93;;;3.40;;
19951;SDS011;10137;49.406;19.484;2023-07-29T05:26:41;3.73;;;3.00;;
19951;SDS011;10137;49.406;19.484;2023-07-29T05:29:08;3.83;;;2.60;;
19951;SDS011;10137;49.406;19.484;2023-07-29T05:31:35;3.60;;;2.87;;
19951;SDS011;10137;49.406;19.484;2023-07-29T05:34:02;3.77;;;2.87;;
19951;SDS011;10137;49.406;19.484;2023-07-29T05:36:29;4.50;;;3.10;;
19951;SDS011;10137;49.406;19.484;2023-07-29T05:38:56;6.50;;;2.80;;
19951;SDS011;10137;49.406;19.484;2023-07-29T05:41:24;6.43;;;2.97;;
19951;SDS011;10137;49.406;19.484;2023-07-29T05:43:53;4.90;;;3.00;;
19951;SDS011;10137;49.406;19.484;2023-07-29T05:46:20;5.67;;;3.20;;
19951;SDS011;10137;49.406;19.484;2023-07-29T05:48:47;3.97;;;2.70;;
19951;SDS011;10137;49.406;19.484;2023-07-29T05:51:14;6.10;;;2.77;;
19951;SDS011;10137;49.406;19.484;2023-07-29T05:53:41;3.93;;;3.17;;
19951;SDS011;10137;49.406;19.484;2023-07-29T05:56:08;9.57;;;3.07;;
19951;SDS011;10137;49.406;19.484;2023-07-29T05:58:37;4.27;;;2.90;;
19951;SDS011;10137;49.406;19.484;2023-07-29T06:01:04;5.13;;;3.13;;
19951;SDS011;10137;49.406;19.484;2023-07-29T06:03:31;9.02;;;3.42;;
19951;SDS011;10137;49.406;19.484;2023-07-29T06:05:57;3.92;;;2.83;;
19951;SDS011;10137;49.406;19.484;2023-07-29T06:08:24;7.78;;;3.13;;
19951;SDS011;10137;49.406;19.484;2023-07-29T06:10:53;9.32;;;3.67;;
19951;SDS011;10137;49.406;19.484;2023-07-29T06:13:20;3.65;;;2.80;;
19951;SDS011;10137;49.406;19.484;2023-07-29T06:15:48;5.18;;;3.03;;
19951;SDS011;10137;49.406;19.484;2023-07-29T06:18:16;4.15;;;3.03;;
19951;SDS011;10137;49.406;19.484;2023-07-29T06:20:42;8.02;;;2.97;;
19951;SDS011;10137;49.406;19.484;2023-07-29T06:23:10;4.47;;;2.97;;
19951;SDS011;10137;49.406;19.484;2023-07-29T06:25:36;5.65;;;3.13;;
19951;SDS011;10137;49.406;19.484;2023-07-29T06:28:03;6.15;;;2.45;;
19951;SDS011;10137;49.406;19.484;2023-07-29T06:30:31;5.00;;;2.30;;
19951;SDS011;10137;49.406;19.484;2023-07-29T06:32:59;7.18;;;3.00;;
19951;SDS011;10137;49.406;19.484;2023-07-29T06:35:26;5.03;;;2.53;;
19951;SDS011;10137;49.406;19.484;2023-07-29T06:37:53;4.13;;;2.60;;
19951;SDS011;10137;49.406;19.484;2023-07-29T06:40:20;3.72;;;2.90;;
19951;SDS011;10137;49.406;19.484;2023-07-29T06:42:47;8.63;;;2.65;;
19951;SDS011;10137;49.406;19.484;2023-07-29T06:45:14;3.97;;;2.17;;
19951;SDS011;10137;49.406;19.484;2023-07-29T06:47:41;3.20;;;1.88;;
19951;SDS011;10137;49.406;19.484;2023-07-29T06:50:10;2.65;;;1.90;;
19951;SDS011;10137;49.406;19.484;2023-07-29T06:52:37;3.28;;;1.75;;
19951;SDS011;10137;49.406;19.484;2023-07-29T06:55:05;4.53;;;1.98;;
19951;SDS011;10137;49.406;19.484;2023-07-29T06:57:33;3.65;;;1.73;;
19951;SDS011;10137;49.406;19.484;2023-07-29T07:00:00;2.42;;;1.80;;
19951;SDS011;10137;49.406;19.484;2023-07-29T07:02:27;3.78;;;1.92;;
19951;SDS011;10137;49.406;19.484;2023-07-29T07:04:55;5.07;;;1.70;;
19951;SDS011;10137;49.406;19.484;2023-07-29T07:07:23;1.85;;;1.50;;
19951;SDS011;10137;49.406;19.484;2023-07-29T07:09:50;2.35;;;1.50;;
19951;SDS011;10137;49.406;19.484;2023-07-29T07:12:17;4.80;;;1.60;;
19951;SDS011;10137;49.406;19.484;2023-07-29T07:14:44;2.03;;;1.70;;
19951;SDS011;10137;49.406;19.484;2023-07-29T07:17:11;2.42;;;1.73;;
19951;SDS011;10137;49.406;19.484;2023-07-29T07:19:38;2.15;;;1.63;;
19951;SDS011;10137;49.406;19.484;2023-07-29T07:22:05;2.17;;;1.60;;
19951;SDS011;10137;49.406;19.484;2023-07-29T07:24:33;2.72;;;1.42;;
19951;SDS011;10137;49.406;19.484;2023-07-29T07:27:00;3.45;;;1.40;;
19951;SDS011;10137;49.406;19.484;2023-07-29T07:29:27;2.25;;;1.60;;
19951;SDS011;10137;49.406;19.484;2023-07-29T07:31:55;2.30;;;1.60;;
19951;SDS011;10137;49.406;19.484;2023-07-29T07:34:22;1.92;;;1.60;;
19951;SDS011;10137;49.406;19.484;2023-07-29T07:36:49;1.98;;;1.58;;
19951;SDS011;10137;49.406;19.484;2023-07-29T07:39:16;1.90;;;1.60;;
19951;SDS011;10137;49.406;19.484;2023-07-29T07:41:45;2.08;;;1.33;;
19951;SDS011;10137;49.406;19.484;2023-07-29T07:44:12;1.75;;;1.35;;
19951;SDS011;10137;49.406;19.484;2023-07-29T07:46:42;1.70;;;1.30;;
19951;SDS011;10137;49.406;19.484;2023-07-29T07:49:09;2.50;;;1.48;;
19951;SDS011;10137;49.406;19.484;2023-07-29T07:51:37;2.40;;;1.50;;
19951;SDS011;10137;49.406;19.484;2023-07-29T07:54:04;2.22;;;1.52;;
19951;SDS011;10137;49.406;19.484;2023-07-29T07:56:31;3.75;;;1.75;;
19951;SDS011;10137;49.406;19.484;2023-07-29T07:59:00;2.58;;;1.40;;
19951;SDS011;10137;49.406;19.484;2023-07-29T08:01:27;2.88;;;1.50;;
19951;SDS011;10137;49.406;19.484;2023-07-29T08:03:53;2.20;;;1.50;;
19951;SDS011;10137;49.406;19.484;2023-07-29T08:06:20;1.73;;;1.33;;
19951;SDS011;10137;49.406;19.484;2023-07-29T08:08:47;2.50;;;1.52;;
19951;SDS011;10137;49.406;19.484;2023-07-29T08:11:14;2.00;;;1.67;;
19951;SDS011;10137;49.406;19.484;2023-07-29T08:13:41;2.90;;;1.70;;
19951;SDS011;10137;49.406;19.484;2023-07-29T08:16:09;3.90;;;1.30;;
19951;SDS011;10137;49.406;19.484;2023-07-29T08:18:36;2.10;;;1.60;;
19951;SDS011;10137;49.406;19.484;2023-07-29T08:21:03;1.75;;;1.40;;
19951;SDS011;10137;49.406;19.484;2023-07-29T08:23:30;3.35;;;1.48;;
19951;SDS011;10137;49.406;19.484;2023-07-29T08:25:59;4.63;;;1.60;;
19951;SDS011;10137;49.406;19.484;2023-07-29T08:28:27;4.05;;;1.40;;
19951;SDS011;10137;49.406;19.484;2023-07-29T08:30:55;1.88;;;1.40;;
19951;SDS011;10137;49.406;19.484;2023-07-29T08:33:24;2.40;;;1.55;;
19951;SDS011;10137;49.406;19.484;2023-07-29T08:35:51;2.22;;;1.77;;
19951;SDS011;10137;49.406;19.484;2023-07-29T08:38:18;2.40;;;1.65;;
19951;SDS011;10137;49.406;19.484;2023-07-29T08:40:48;2.85;;;1.40;;
19951;SDS011;10137;49.406;19.484;2023-07-29T08:43:20;1.80;;;1.50;;
19951;SDS011;10137;49.406;19.484;2023-07-29T08:45:52;2.15;;;1.80;;
19951;SDS011;10137;49.406;19.484;2023-07-29T08:48:19;2.70;;;1.77;;
19951;SDS011;10137;49.406;19.484;2023-07-29T08:50:59;2.25;;;1.60;;
19951;SDS011;10137;49.406;19.484;2023-07-29T08:53:29;3.17;;;1.73;;
19951;SDS011;10137;49.406;19.484;2023-07-29T08:55:57;2.08;;;1.50;;
19951;SDS011;10137;49.406;19.484;2023-07-29T08:58:25;4.00;;;1.50;;
19951;SDS011;10137;49.406;19.484;2023-07-29T09:00:52;2.92;;;1.40;;
19951;SDS011;10137;49.406;19.484;2023-07-29T09:03:19;1.70;;;1.50;;
19951;SDS011;10137;49.406;19.484;2023-07-29T09:05:48;2.25;;;1.58;;
19951;SDS011;10137;49.406;19.484;2023-07-29T09:08:15;2.78;;;1.35;;
19951;SDS011;10137;49.406;19.484;2023-07-29T09:10:42;5.15;;;1.27;;
19951;SDS011;10137;49.406;19.484;2023-07-29T09:13:09;2.05;;;1.38;;
19951;SDS011;10137;49.406;19.484;2023-07-29T09:15:36;4.60;;;1.48;;
19951;SDS011;10137;49.406;19.484;2023-07-29T09:18:09;1.30;;;1.20;;
19951;SDS011;10137;49.406;19.484;2023-07-29T09:20:37;2.40;;;2.00;;
19951;SDS011;10137;49.406;19.484;2023-07-29T09:23:06;3.08;;;1.60;;
19951;SDS011;10137;49.406;19.484;2023-07-29T09:25:35;2.17;;;1.77;;
19951;SDS011;10137;49.406;19.484;2023-07-29T09:28:07;3.55;;;1.60;;
19951;SDS011;10137;49.406;19.484;2023-07-29T09:30:36;5.28;;;1.70;;
19951;SDS011;10137;49.406;19.484;2023-07-29T09:33:03;4.53;;;2.22;;
19951;SDS011;10137;49.406;19.484;2023-07-29T09:35:30;3.10;;;2.05;;
19951;SDS011;10137;49.406;19.484;2023-07-29T09:37:59;2.40;;;1.90;;
19951;SDS011;10137;49.406;19.484;2023-07-29T09:40:27;2.08;;;1.67;;
19951;SDS011;10137;49.406;19.484;2023-07-29T09:43:00;4.20;;;2.17;;
19951;SDS011;10137;49.406;19.484;2023-07-29T09:45:27;3.00;;;1.98;;
19951;SDS011;10137;49.406;19.484;2023-07-29T09:47:54;1.92;;;1.73;;
19951;SDS011;10137;49.406;19.484;2023-07-29T09:50:23;1.48;;;1.17;;
19951;SDS011;10137;49.406;19.484;2023-07-29T09:52:51;1.88;;;1.40;;
19951;SDS011;10137;49.406;19.484;2023-07-29T09:55:19;4.30;;;1.60;;
19951;SDS011;10137;49.406;19.484;2023-07-29T09:57:49;2.38;;;1.48;;
19951;SDS011;10137;49.406;19.484;2023-07-29T10:00:20;3.45;;;1.60;;
19951;SDS011;10137;49.406;19.484;2023-07-29T10:02:47;3.15;;;1.70;;
19951;SDS011;10137;49.406;19.484;2023-07-29T10:05:15;3.45;;;1.50;;
19951;SDS011;10137;49.406;19.484;2023-07-29T10:07:42;6.15;;;1.73;;
19951;SDS011;10137;49.406;19.484;2023-07-29T10:10:09;3.55;;;1.38;;
19951;SDS011;10137;49.406;19.484;2023-07-29T10:12:39;3.10;;;1.67;;
19951;SDS011;10137;49.406;19.484;2023-07-29T10:15:09;3.85;;;1.42;;
19951;SDS011;10137;49.406;19.484;2023-07-29T10:17:37;2.05;;;1.50;;
19951;SDS011;10137;49.406;19.484;2023-07-29T10:20:05;3.55;;;1.60;;
19951;SDS011;10137;49.406;19.484;2023-07-29T10:22:35;2.60;;;1.40;;
19951;SDS011;10137;49.406;19.484;2023-07-29T10:25:04;2.50;;;1.48;;
19951;SDS011;10137;49.406;19.484;2023-07-29T10:27:35;2.38;;;1.45;;
19951;SDS011;10137;49.406;19.484;2023-07-29T10:30:10;2.45;;;1.67;;
19951;SDS011;10137;49.406;19.484;2023-07-29T10:32:38;2.28;;;1.83;;
19951;SDS011;10137;49.406;19.484;2023-07-29T10:35:08;4.85;;;1.63;;
19951;SDS011;10137;49.406;19.484;2023-07-29T10:37:35;3.63;;;1.75;;
19951;SDS011;10137;49.406;19.484;2023-07-29T10:40:05;2.70;;;1.73;;
19951;SDS011;10137;49.406;19.484;2023-07-29T10:42:34;2.30;;;1.80;;
19951;SDS011;10137;49.406;19.484;2023-07-29T10:45:05;2.22;;;1.73;;
19951;SDS011;10137;49.406;19.484;2023-07-29T10:47:45;3.63;;;2.10;;
19951;SDS011;10137;49.406;19.484;2023-07-29T10:50:17;3.63;;;1.95;;
19951;SDS011;10137;49.406;19.484;2023-07-29T10:52:48;4.35;;;1.98;;
19951;SDS011;10137;49.406;19.484;2023-07-29T10:55:26;3.70;;;2.33;;
19951;SDS011;10137;49.406;19.484;2023-07-29T10:58:05;4.45;;;1.90;;
19951;SDS011;10137;49.406;19.484;2023-07-29T11:00:35;4.75;;;2.22;;
19951;SDS011;10137;49.406;19.484;2023-07-29T11:03:03;3.50;;;2.00;;
19951;SDS011;10137;49.406;19.484;2023-07-29T11:05:41;3.80;;;2.17;;
19951;SDS011;10137;49.406;19.484;2023-07-29T11:08:16;3.05;;;1.92;;
19951;SDS011;10137;49.406;19.484;2023-07-29T11:11:04;2.85;;;2.10;;
19951;SDS011;10137;49.406;19.484;2023-07-29T11:13:32;5.32;;;2.22;;
19951;SDS011;10137;49.406;19.484;2023-07-29T11:16:02;2.53;;;1.90;;
19951;SDS011;10137;49.406;19.484;2023-07-29T11:18:30;2.45;;;1.90;;
19951;SDS011;10137;49.406;19.484;2023-07-29T11:20:59;2.58;;;1.50;;
19951;SDS011;10137;49.406;19.484;2023-07-29T11:23:30;2.20;;;1.48;;
19951;SDS011;10137;49.406;19.484;2023-07-29T11:25:58;2.88;;;1.50;;
19951;SDS011;10137;49.406;19.484;2023-07-29T11:28:25;1.70;;;1.40;;
19951;SDS011;10137;49.406;19.484;2023-07-29T11:30:53;1.42;;;1.33;;
19951;SDS011;10137;49.406;19.484;2023-07-29T11:33:23;2.22;;;1.48;;
19951;SDS011;10137;49.406;19.484;2023-07-29T11:35:53;2.15;;;1.80;;
19951;SDS011;10137;49.406;19.484;2023-07-29T11:38:20;1.85;;;1.60;;
19951;SDS011;10137;49.406;19.484;2023-07-29T11:40:54;3.53;;;1.60;;
19951;SDS011;10137;49.406;19.484;2023-07-29T11:43:25;1.50;;;1.33;;
19951;SDS011;10137;49.406;19.484;2023-07-29T11:45:53;2.13;;;1.80;;
19951;SDS011;10137;49.406;19.484;2023-07-29T11:48:27;1.70;;;1.40;;
19951;SDS011;10137;49.406;19.484;2023-07-29T11:50:55;2.65;;;1.63;;
19951;SDS011;10137;49.406;19.484;2023-07-29T11:53:22;1.50;;;1.40;;
19951;SDS011;10137;49.406;19.484;2023-07-29T11:55:53;2.45;;;1.38;;
19951;SDS011;10137;49.406;19.484;2023-07-29T11:58:20;1.75;;;1.40;;
19951;SDS011;10137;49.406;19.484;2023-07-29T12:00:48;1.80;;;1.60;;
19951;SDS011;10137;49.406;19.484;2023-07-29T12:03:15;1.42;;;1.30;;
19951;SDS011;10137;49.406;19.484;2023-07-29T12:05:45;1.92;;;1.52;;
19951;SDS011;10137;49.406;19.484;2023-07-29T12:08:12;1.45;;;1.20;;
19951;SDS011;10137;49.406;19.484;2023-07-29T12:10:39;1.40;;;1.17;;
19951;SDS011;10137;49.406;19.484;2023-07-29T12:13:07;2.70;;;1.17;;
19951;SDS011;10137;49.406;19.484;2023-07-29T12:15:34;2.03;;;1.25;;
19951;SDS011;10137;49.406;19.484;2023-07-29T12:18:04;2.42;;;1.30;;
19951;SDS011;10137;49.406;19.484;2023-07-29T12:20:31;1.70;;;1.45;;
19951;SDS011;10137;49.406;19.484;2023-07-29T12:22:59;1.33;;;1.10;;
19951;SDS011;10137;49.406;19.484;2023-07-29T12:25:28;2.47;;;1.40;;
19951;SDS011;10137;49.406;19.484;2023-07-29T12:27:55;1.75;;;1.40;;
19951;SDS011;10137;49.406;19.484;2023-07-29T12:30:22;1.50;;;1.33;;
19951;SDS011;10137;49.406;19.484;2023-07-29T12:32:50;1.33;;;1.20;;
19951;SDS011;10137;49.406;19.484;2023-07-29T12:35:17;2.67;;;1.17;;
19951;SDS011;10137;49.406;19.484;2023-07-29T12:37:44;3.65;;;1.08;;
19951;SDS011;10137;49.406;19.484;2023-07-29T12:40:22;1.20;;;1.08;;
19951;SDS011;10137;49.406;19.484;2023-07-29T12:42:49;4.57;;;1.10;;
19951;SDS011;10137;49.406;19.484;2023-07-29T12:45:16;1.90;;;1.42;;
19951;SDS011;10137;49.406;19.484;2023-07-29T12:47:43;1.50;;;1.40;;
19951;SDS011;10137;49.406;19.484;2023-07-29T12:50:10;3.10;;;1.50;;
19951;SDS011;10137;49.406;19.484;2023-07-29T12:52:37;2.42;;;1.77;;
19951;SDS011;10137;49.406;19.484;2023-07-29T12:55:05;2.20;;;1.60;;
19951;SDS011;10137;49.406;19.484;2023-07-29T12:57:35;4.80;;;2.80;;
19951;SDS011;10137;49.406;19.484;2023-07-29T13:00:02;3.88;;;1.80;;
19951;SDS011;10137;49.406;19.484;2023-07-29T13:02:30;7.47;;;2.00;;
19951;SDS011;10137;49.406;19.484;2023-07-29T13:04:57;6.43;;;1.73;;
19951;SDS011;10137;49.406;19.484;2023-07-29T13:07:24;2.72;;;1.08;;
19951;SDS011;10137;49.406;19.484;2023-07-29T13:09:51;1.05;;;0.70;;
19951;SDS011;10137;49.406;19.484;2023-07-29T13:12:18;0.80;;;0.65;;
19951;SDS011;10137;49.406;19.484;2023-07-29T13:14:47;1.27;;;0.85;;
19951;SDS011;10137;49.406;19.484;2023-07-29T13:17:14;1.88;;;1.10;;
19951;SDS011;10137;49.406;19.484;2023-07-29T13:19:41;3.08;;;1.25;;
19951;SDS011;10137;49.406;19.484;2023-07-29T13:22:08;5.43;;;1.63;;
19951;SDS011;10137;49.406;19.484;2023-07-29T13:24:35;6.13;;;1.92;;
19951;SDS011;10137;49.406;19.484;2023-07-29T13:27:02;5.88;;;1.90;;
19951;SDS011;10137;49.406;19.484;2023-07-29T13:29:29;2.90;;;1.63;;
19951;SDS011;10137;49.406;19.484;2023-07-29T13:31:58;4.63;;;1.63;;
19951;SDS011;10137;49.406;19.484;2023-07-29T13:34:24;4.82;;;1.90;;
19951;SDS011;10137;49.406;19.484;2023-07-29T13:36:51;3.42;;;1.60;;
19951;SDS011;10137;49.406;19.484;2023-07-29T13:39:19;3.85;;;1.48;;
19951;SDS011;10137;49.406;19.484;2023-07-29T13:41:46;3.58;;;1.52;;
19951;SDS011;10137;49.406;19.484;2023-07-29T13:44:13;4.57;;;1.48;;
19951;SDS011;10137;49.406;19.484;2023-07-29T13:46:40;2.47;;;1.75;;
19951;SDS011;10137;49.406;19.484;2023-07-29T13:49:08;4.30;;;1.98;;
19951;SDS011;10137;49.406;19.484;2023-07-29T13:51:35;3.75;;;2.17;;
19951;SDS011;10137;49.406;19.484;2023-07-29T13:54:02;4.15;;;2.25;;
19951;SDS011;10137;49.406;19.484;2023-07-29T13:56:29;5.78;;;2.00;;
19951;SDS011;10137;49.406;19.484;2023-07-29T13:58:55;3.10;;;2.10;;
19951;SDS011;10137;49.406;19.484;2023-07-29T14:01:22;4.68;;;2.53;;
19951;SDS011;10137;49.406;19.484;2023-07-29T14:03:49;2.60;;;1.88;;
19951;SDS011;10137;49.406;19.484;2023-07-29T14:06:18;2.20;;;1.73;;
19951;SDS011;10137;49.406;19.484;2023-07-29T14:08:45;2.38;;;1.40;;
19951;SDS011;10137;49.406;19.484;2023-07-29T14:11:11;3.50;;;1.50;;
19951;SDS011;10137;49.406;19.484;2023-07-29T14:13:38;2.03;;;1.17;;
19951;SDS011;10137;49.406;19.484;2023-07-29T14:16:05;3.03;;;1.80;;
19951;SDS011;10137;49.406;19.484;2023-07-29T14:18:32;2.75;;;1.70;;
19951;SDS011;10137;49.406;19.484;2023-07-29T14:20:59;2.63;;;2.05;;
19951;SDS011;10137;49.406;19.484;2023-07-29T14:23:27;2.60;;;1.52;;
19951;SDS011;10137;49.406;19.484;2023-07-29T14:25:55;1.48;;;1.20;;
19951;SDS011;10137;49.406;19.484;2023-07-29T14:28:22;1.58;;;1.08;;
19951;SDS011;10137;49.406;19.484;2023-07-29T14:30:49;4.28;;;1.45;;
19951;SDS011;10137;49.406;19.484;2023-07-29T14:33:16;3.15;;;1.20;;
19951;SDS011;10137;49.406;19.484;2023-07-29T14:35:43;1.48;;;1.10;;
19951;SDS011;10137;49.406;19.484;2023-07-29T14:38:10;1.90;;;1.15;;